sensor_id;sensor_type;location;lat;lon;timestamp;temperature;humidity
11229;DHT22;5671;47.936;8.716;2022-09-21T00:01:59;7.60;75.90
11229;DHT22;5671;47.936;8.716;2022-09-21T00:04:26;7.50;74.90
11229;DHT22;5671;47.936;8.716;2022-09-21T00:06:53;7.50;73.80
11229;DHT22;5671;47.936;8.716;2022-09-21T00:09:20;7.40;74.10
11229;DHT22;5671;47.936;8.716;2022-09-21T00:11:47;7.40;74.00
11229;DHT22;5671;47.936;8.716;2022-09-21T00:14:14;7.30;74.00
11229;DHT22;5671;47.936;8.716;2022-09-21T00:16:42;7.30;74.30
11229;DHT22;5671;47.936;8.716;2022-09-21T00:19:10;7.20;74.10
11229;DHT22;5671;47.936;8.716;2022-09-21T00:21:38;7.20;74.50
11229;DHT22;5671;47.936;8.716;2022-09-21T00:24:06;7.10;74.90
11229;DHT22;5671;47.936;8.716;2022-09-21T00:26:36;7.10;75.30
11229;DHT22;5671;47.936;8.716;2022-09-21T00:29:03;7.00;75.50
11229;DHT22;5671;47.936;8.716;2022-09-21T00:31:31;7.00;74.90
11229;DHT22;5671;47.936;8.716;2022-09-21T00:33:59;6.90;74.70
11229;DHT22;5671;47.936;8.716;2022-09-21T00:36:29;6.90;75.10
11229;DHT22;5671;47.936;8.716;2022-09-21T00:38:57;6.80;76.40
11229;DHT22;5671;47.936;8.716;2022-09-21T00:41:26;6.70;75.40
11229;DHT22;5671;47.936;8.716;2022-09-21T00:44:19;6.70;75.20
11229;DHT22;5671;47.936;8.716;2022-09-21T00:46:50;6.60;75.00
11229;DHT22;5671;47.936;8.716;2022-09-21T00:49:19;6.60;76.20
11229;DHT22;5671;47.936;8.716;2022-09-21T00:51:48;6.50;75.60
11229;DHT22;5671;47.936;8.716;2022-09-21T00:54:21;6.40;76.10
11229;DHT22;5671;47.936;8.716;2022-09-21T00:56:49;6.40;75.40
11229;DHT22;5671;47.936;8.716;2022-09-21T00:59:17;6.30;75.30
11229;DHT22;5671;47.936;8.716;2022-09-21T01:01:44;6.20;76.50
11229;DHT22;5671;47.936;8.716;2022-09-21T01:04:12;6.20;75.20
11229;DHT22;5671;47.936;8.716;2022-09-21T01:06:43;6.10;75.90
11229;DHT22;5671;47.936;8.716;2022-09-21T01:09:14;6.00;76.40
11229;DHT22;5671;47.936;8.716;2022-09-21T01:11:49;6.00;76.70
11229;DHT22;5671;47.936;8.716;2022-09-21T01:14:35;5.90;77.00
11229;DHT22;5671;47.936;8.716;2022-09-21T01:17:08;5.90;75.40
11229;DHT22;5671;47.936;8.716;2022-09-21T01:20:04;5.80;75.60
11229;DHT22;5671;47.936;8.716;2022-09-21T01:22:43;5.70;75.60
11229;DHT22;5671;47.936;8.716;2022-09-21T01:25:25;5.60;75.30
11229;DHT22;5671;47.936;8.716;2022-09-21T01:28:10;5.60;75.50
11229;DHT22;5671;47.936;8.716;2022-09-21T01:30:43;5.50;76.20
11229;DHT22;5671;47.936;8.716;2022-09-21T01:33:14;5.40;76.30
11229;DHT22;5671;47.936;8.716;2022-09-21T01:35:46;5.40;75.50
11229;DHT22;5671;47.936;8.716;2022-09-21T01:38:18;5.30;75.60
11229;DHT22;5671;47.936;8.716;2022-09-21T01:40:50;5.30;75.80
11229;DHT22;5671;47.936;8.716;2022-09-21T01:43:22;5.30;76.50
11229;DHT22;5671;47.936;8.716;2022-09-21T01:45:54;5.20;76.10
11229;DHT22;5671;47.936;8.716;2022-09-21T01:48:23;5.10;75.90
11229;DHT22;5671;47.936;8.716;2022-09-21T01:50:53;5.10;75.80
11229;DHT22;5671;47.936;8.716;2022-09-21T01:53:27;5.00;75.60
11229;DHT22;5671;47.936;8.716;2022-09-21T01:55:58;5.00;76.00
11229;DHT22;5671;47.936;8.716;2022-09-21T01:58:30;4.90;75.60
11229;DHT22;5671;47.936;8.716;2022-09-21T02:01:02;4.90;75.40
11229;DHT22;5671;47.936;8.716;2022-09-21T02:03:35;4.80;75.60
11229;DHT22;5671;47.936;8.716;2022-09-21T02:06:03;4.70;75.30
11229;DHT22;5671;47.936;8.716;2022-09-21T02:08:32;4.70;76.10
11229;DHT22;5671;47.936;8.716;2022-09-21T02:11:01;4.60;76.00
11229;DHT22;5671;47.936;8.716;2022-09-21T02:13:31;4.60;76.20
11229;DHT22;5671;47.936;8.716;2022-09-21T02:16:33;4.50;76.50
11229;DHT22;5671;47.936;8.716;2022-09-21T02:19:11;4.50;76.50
11229;DHT22;5671;47.936;8.716;2022-09-21T02:21:49;4.40;77.50
11229;DHT22;5671;47.936;8.716;2022-09-21T02:24:22;4.40;76.40
11229;DHT22;5671;47.936;8.716;2022-09-21T02:26:54;4.30;76.50
11229;DHT22;5671;47.936;8.716;2022-09-21T02:29:27;4.30;76.20
11229;DHT22;5671;47.936;8.716;2022-09-21T02:32:03;4.20;76.20
11229;DHT22;5671;47.936;8.716;2022-09-21T02:34:36;4.20;76.70
11229;DHT22;5671;47.936;8.716;2022-09-21T02:37:15;4.10;76.50
11229;DHT22;5671;47.936;8.716;2022-09-21T02:39:50;4.10;76.70
11229;DHT22;5671;47.936;8.716;2022-09-21T02:42:23;4.00;77.30
11229;DHT22;5671;47.936;8.716;2022-09-21T02:44:57;4.00;76.50
11229;DHT22;5671;47.936;8.716;2022-09-21T02:47:33;3.90;77.60
11229;DHT22;5671;47.936;8.716;2022-09-21T02:50:05;3.90;77.50
11229;DHT22;5671;47.936;8.716;2022-09-21T02:52:33;3.80;77.30
11229;DHT22;5671;47.936;8.716;2022-09-21T02:55:02;3.80;77.60
11229;DHT22;5671;47.936;8.716;2022-09-21T02:57:29;3.80;77.90
11229;DHT22;5671;47.936;8.716;2022-09-21T02:59:56;3.80;77.90
11229;DHT22;5671;47.936;8.716;2022-09-21T03:02:23;3.70;77.40
11229;DHT22;5671;47.936;8.716;2022-09-21T03:05:05;3.70;77.90
11229;DHT22;5671;47.936;8.716;2022-09-21T03:07:33;3.60;77.30
11229;DHT22;5671;47.936;8.716;2022-09-21T03:10:00;3.60;77.50
11229;DHT22;5671;47.936;8.716;2022-09-21T03:12:27;3.60;77.40
11229;DHT22;5671;47.936;8.716;2022-09-21T03:14:54;3.50;77.80
11229;DHT22;5671;47.936;8.716;2022-09-21T03:17:21;3.50;77.90
11229;DHT22;5671;47.936;8.716;2022-09-21T03:19:49;3.40;78.30
11229;DHT22;5671;47.936;8.716;2022-09-21T03:22:21;3.40;78.00
11229;DHT22;5671;47.936;8.716;2022-09-21T03:24:49;3.40;78.00
11229;DHT22;5671;47.936;8.716;2022-09-21T03:27:17;3.30;78.80
11229;DHT22;5671;47.936;8.716;2022-09-21T03:29:45;3.30;79.00
11229;DHT22;5671;47.936;8.716;2022-09-21T03:32:12;3.30;77.70
11229;DHT22;5671;47.936;8.716;2022-09-21T03:34:39;3.20;78.20
11229;DHT22;5671;47.936;8.716;2022-09-21T03:37:08;3.20;77.70
11229;DHT22;5671;47.936;8.716;2022-09-21T03:39:36;3.10;78.40
11229;DHT22;5671;47.936;8.716;2022-09-21T03:42:03;3.10;77.90
11229;DHT22;5671;47.936;8.716;2022-09-21T03:44:34;3.10;77.40
11229;DHT22;5671;47.936;8.716;2022-09-21T03:47:02;3.00;78.00
11229;DHT22;5671;47.936;8.716;2022-09-21T03:49:31;3.00;78.20
11229;DHT22;5671;47.936;8.716;2022-09-21T03:51:58;3.00;78.00
11229;DHT22;5671;47.936;8.716;2022-09-21T03:54:25;2.90;78.10
11229;DHT22;5671;47.936;8.716;2022-09-21T03:56:54;2.90;78.40
11229;DHT22;5671;47.936;8.716;2022-09-21T03:59:21;2.90;78.30
11229;DHT22;5671;47.936;8.716;2022-09-21T04:01:48;2.80;80.10
11229;DHT22;5671;47.936;8.716;2022-09-21T04:04:15;2.80;78.10
11229;DHT22;5671;47.936;8.716;2022-09-21T04:06:42;2.70;79.40
11229;DHT22;5671;47.936;8.716;2022-09-21T04:09:10;2.70;79.60
11229;DHT22;5671;47.936;8.716;2022-09-21T04:11:37;2.70;78.70
11229;DHT22;5671;47.936;8.716;2022-09-21T04:14:05;2.70;79.30
11229;DHT22;5671;47.936;8.716;2022-09-21T04:16:32;2.60;80.10
11229;DHT22;5671;47.936;8.716;2022-09-21T04:18:59;2.60;80.50
11229;DHT22;5671;47.936;8.716;2022-09-21T04:21:26;2.60;79.50
11229;DHT22;5671;47.936;8.716;2022-09-21T04:23:53;2.50;79.90
11229;DHT22;5671;47.936;8.716;2022-09-21T04:26:22;2.50;79.20
11229;DHT22;5671;47.936;8.716;2022-09-21T04:28:50;2.50;79.30
11229;DHT22;5671;47.936;8.716;2022-09-21T04:31:18;2.50;78.90
11229;DHT22;5671;47.936;8.716;2022-09-21T04:33:47;2.40;79.00
11229;DHT22;5671;47.936;8.716;2022-09-21T04:36:15;2.40;79.10
11229;DHT22;5671;47.936;8.716;2022-09-21T04:39:00;2.40;78.50
11229;DHT22;5671;47.936;8.716;2022-09-21T04:41:27;2.40;80.10
11229;DHT22;5671;47.936;8.716;2022-09-21T04:43:54;2.30;79.70
11229;DHT22;5671;47.936;8.716;2022-09-21T04:46:22;2.30;79.70
11229;DHT22;5671;47.936;8.716;2022-09-21T04:48:49;2.30;79.10
11229;DHT22;5671;47.936;8.716;2022-09-21T04:51:16;2.20;79.30
11229;DHT22;5671;47.936;8.716;2022-09-21T04:53:44;2.20;79.00
11229;DHT22;5671;47.936;8.716;2022-09-21T04:56:13;2.20;79.70
11229;DHT22;5671;47.936;8.716;2022-09-21T04:58:40;2.20;80.60
11229;DHT22;5671;47.936;8.716;2022-09-21T05:01:07;2.20;79.50
11229;DHT22;5671;47.936;8.716;2022-09-21T05:03:35;2.10;79.50
11229;DHT22;5671;47.936;8.716;2022-09-21T05:06:03;2.10;79.30
11229;DHT22;5671;47.936;8.716;2022-09-21T05:08:30;2.10;80.30
11229;DHT22;5671;47.936;8.716;2022-09-21T05:11:16;2.10;81.00
11229;DHT22;5671;47.936;8.716;2022-09-21T05:13:44;2.00;79.90
11229;DHT22;5671;47.936;8.716;2022-09-21T05:16:12;2.00;80.50
11229;DHT22;5671;47.936;8.716;2022-09-21T05:18:40;2.00;80.50
11229;DHT22;5671;47.936;8.716;2022-09-21T05:21:08;2.00;80.80
11229;DHT22;5671;47.936;8.716;2022-09-21T05:23:37;1.90;80.30
11229;DHT22;5671;47.936;8.716;2022-09-21T05:26:04;1.90;80.00
11229;DHT22;5671;47.936;8.716;2022-09-21T05:28:32;1.90;80.30
11229;DHT22;5671;47.936;8.716;2022-09-21T05:31:03;1.90;80.20
11229;DHT22;5671;47.936;8.716;2022-09-21T05:33:31;1.90;80.20
11229;DHT22;5671;47.936;8.716;2022-09-21T05:36:08;1.90;80.50
11229;DHT22;5671;47.936;8.716;2022-09-21T05:38:37;1.90;80.60
11229;DHT22;5671;47.936;8.716;2022-09-21T05:41:05;1.90;80.30
11229;DHT22;5671;47.936;8.716;2022-09-21T05:43:33;1.90;80.30
11229;DHT22;5671;47.936;8.716;2022-09-21T05:46:02;1.90;80.80
11229;DHT22;5671;47.936;8.716;2022-09-21T05:48:36;1.90;81.80
11229;DHT22;5671;47.936;8.716;2022-09-21T05:51:11;1.90;81.10
11229;DHT22;5671;47.936;8.716;2022-09-21T05:53:49;1.90;81.60
11229;DHT22;5671;47.936;8.716;2022-09-21T05:56:29;1.90;82.00
11229;DHT22;5671;47.936;8.716;2022-09-21T05:59:06;1.90;82.10
11229;DHT22;5671;47.936;8.716;2022-09-21T06:01:53;1.90;83.70
11229;DHT22;5671;47.936;8.716;2022-09-21T06:04:23;2.00;83.30
11229;DHT22;5671;47.936;8.716;2022-09-21T06:06:52;2.00;82.70
11229;DHT22;5671;47.936;8.716;2022-09-21T06:09:18;2.00;83.30
11229;DHT22;5671;47.936;8.716;2022-09-21T06:11:46;2.10;82.40
11229;DHT22;5671;47.936;8.716;2022-09-21T06:14:13;2.10;83.20
11229;DHT22;5671;47.936;8.716;2022-09-21T06:16:41;2.10;82.40
11229;DHT22;5671;47.936;8.716;2022-09-21T06:19:10;2.10;83.40
11229;DHT22;5671;47.936;8.716;2022-09-21T06:21:37;2.20;83.40
11229;DHT22;5671;47.936;8.716;2022-09-21T06:24:06;2.20;83.90
11229;DHT22;5671;47.936;8.716;2022-09-21T06:26:33;2.30;84.40
11229;DHT22;5671;47.936;8.716;2022-09-21T06:29:00;2.30;83.30
11229;DHT22;5671;47.936;8.716;2022-09-21T06:31:27;2.30;83.00
11229;DHT22;5671;47.936;8.716;2022-09-21T06:33:54;2.40;83.20
11229;DHT22;5671;47.936;8.716;2022-09-21T06:36:21;2.40;83.50
11229;DHT22;5671;47.936;8.716;2022-09-21T06:38:48;2.50;84.70
11229;DHT22;5671;47.936;8.716;2022-09-21T06:41:16;2.60;85.40
11229;DHT22;5671;47.936;8.716;2022-09-21T06:43:43;2.70;85.80
11229;DHT22;5671;47.936;8.716;2022-09-21T06:46:09;2.80;86.10
11229;DHT22;5671;47.936;8.716;2022-09-21T06:48:37;2.80;85.90
11229;DHT22;5671;47.936;8.716;2022-09-21T06:51:05;2.90;85.90
11229;DHT22;5671;47.936;8.716;2022-09-21T06:53:33;3.00;86.20
11229;DHT22;5671;47.936;8.716;2022-09-21T06:56:01;3.10;85.60
11229;DHT22;5671;47.936;8.716;2022-09-21T06:58:30;3.20;85.80
11229;DHT22;5671;47.936;8.716;2022-09-21T07:01:04;3.20;84.90
11229;DHT22;5671;47.936;8.716;2022-09-21T07:03:31;3.30;85.20
11229;DHT22;5671;47.936;8.716;2022-09-21T07:05:58;3.40;84.40
11229;DHT22;5671;47.936;8.716;2022-09-21T07:08:25;3.50;83.90
11229;DHT22;5671;47.936;8.716;2022-09-21T07:10:52;3.60;83.60
11229;DHT22;5671;47.936;8.716;2022-09-21T07:13:19;3.60;84.20
11229;DHT22;5671;47.936;8.716;2022-09-21T07:15:48;3.70;84.00
11229;DHT22;5671;47.936;8.716;2022-09-21T07:18:16;3.80;84.40
11229;DHT22;5671;47.936;8.716;2022-09-21T07:20:43;3.90;83.60
11229;DHT22;5671;47.936;8.716;2022-09-21T07:23:14;3.90;84.20
11229;DHT22;5671;47.936;8.716;2022-09-21T07:25:41;4.10;84.70
11229;DHT22;5671;47.936;8.716;2022-09-21T07:28:09;4.20;85.70
11229;DHT22;5671;47.936;8.716;2022-09-21T07:30:36;4.30;84.80
11229;DHT22;5671;47.936;8.716;2022-09-21T07:33:05;4.50;85.80
11229;DHT22;5671;47.936;8.716;2022-09-21T07:35:33;4.60;86.60
11229;DHT22;5671;47.936;8.716;2022-09-21T07:38:01;4.70;88.20
11229;DHT22;5671;47.936;8.716;2022-09-21T07:40:28;5.00;88.40
11229;DHT22;5671;47.936;8.716;2022-09-21T07:42:57;5.30;87.20
11229;DHT22;5671;47.936;8.716;2022-09-21T07:45:24;5.50;85.70
11229;DHT22;5671;47.936;8.716;2022-09-21T07:47:51;5.80;84.80
11229;DHT22;5671;47.936;8.716;2022-09-21T07:50:20;6.00;84.10
11229;DHT22;5671;47.936;8.716;2022-09-21T07:52:48;6.20;84.30
11229;DHT22;5671;47.936;8.716;2022-09-21T07:58:03;6.60;81.70
11229;DHT22;5671;47.936;8.716;2022-09-21T08:01:04;6.80;81.10
11229;DHT22;5671;47.936;8.716;2022-09-21T08:03:31;6.90;80.90
11229;DHT22;5671;47.936;8.716;2022-09-21T08:09:12;7.20;78.30
11229;DHT22;5671;47.936;8.716;2022-09-21T08:11:39;7.40;77.00
11229;DHT22;5671;47.936;8.716;2022-09-21T08:14:10;7.60;76.10
11229;DHT22;5671;47.936;8.716;2022-09-21T08:16:44;7.70;75.20
11229;DHT22;5671;47.936;8.716;2022-09-21T08:19:11;7.80;75.20
11229;DHT22;5671;47.936;8.716;2022-09-21T08:21:38;7.90;76.60
11229;DHT22;5671;47.936;8.716;2022-09-21T08:24:06;8.10;76.10
11229;DHT22;5671;47.936;8.716;2022-09-21T08:26:34;8.20;75.60
11229;DHT22;5671;47.936;8.716;2022-09-21T08:29:02;8.30;75.60
11229;DHT22;5671;47.936;8.716;2022-09-21T08:31:29;8.40;74.40
11229;DHT22;5671;47.936;8.716;2022-09-21T08:33:56;8.50;75.70
11229;DHT22;5671;47.936;8.716;2022-09-21T08:36:23;8.60;73.20
11229;DHT22;5671;47.936;8.716;2022-09-21T08:38:51;8.70;73.60
11229;DHT22;5671;47.936;8.716;2022-09-21T08:41:22;8.90;71.70
11229;DHT22;5671;47.936;8.716;2022-09-21T08:43:52;9.00;71.50
11229;DHT22;5671;47.936;8.716;2022-09-21T08:46:46;9.10;71.20
11229;DHT22;5671;47.936;8.716;2022-09-21T08:54:45;9.30;68.40
11229;DHT22;5671;47.936;8.716;2022-09-21T09:03:28;9.50;67.30
11229;DHT22;5671;47.936;8.716;2022-09-21T09:05:55;9.60;67.30
11229;DHT22;5671;47.936;8.716;2022-09-21T09:11:49;9.80;66.10
11229;DHT22;5671;47.936;8.716;2022-09-21T09:14:35;9.90;63.50
11229;DHT22;5671;47.936;8.716;2022-09-21T09:17:25;9.90;62.90
11229;DHT22;5671;47.936;8.716;2022-09-21T09:19:57;10.00;64.40
11229;DHT22;5671;47.936;8.716;2022-09-21T09:22:29;10.00;63.10
11229;DHT22;5671;47.936;8.716;2022-09-21T09:25:03;10.10;61.70
11229;DHT22;5671;47.936;8.716;2022-09-21T09:27:35;10.10;62.60
11229;DHT22;5671;47.936;8.716;2022-09-21T09:30:12;10.20;61.30
11229;DHT22;5671;47.936;8.716;2022-09-21T09:32:46;10.30;62.70
11229;DHT22;5671;47.936;8.716;2022-09-21T09:35:23;10.40;61.10
11229;DHT22;5671;47.936;8.716;2022-09-21T09:37:51;10.40;61.70
11229;DHT22;5671;47.936;8.716;2022-09-21T09:40:29;10.50;61.60
11229;DHT22;5671;47.936;8.716;2022-09-21T09:43:16;10.60;60.40
11229;DHT22;5671;47.936;8.716;2022-09-21T09:46:00;10.70;61.00
11229;DHT22;5671;47.936;8.716;2022-09-21T09:48:48;10.80;60.30
11229;DHT22;5671;47.936;8.716;2022-09-21T09:51:18;10.90;60.50
11229;DHT22;5671;47.936;8.716;2022-09-21T09:53:47;11.00;58.50
11229;DHT22;5671;47.936;8.716;2022-09-21T09:56:14;11.20;59.20
11229;DHT22;5671;47.936;8.716;2022-09-21T09:58:55;11.50;58.20
11229;DHT22;5671;47.936;8.716;2022-09-21T10:01:42;12.00;55.40
11229;DHT22;5671;47.936;8.716;2022-09-21T10:04:12;12.40;56.20
11229;DHT22;5671;47.936;8.716;2022-09-21T10:06:46;13.10;52.80
11229;DHT22;5671;47.936;8.716;2022-09-21T10:09:31;13.70;53.60
11229;DHT22;5671;47.936;8.716;2022-09-21T10:12:00;14.40;48.90
11229;DHT22;5671;47.936;8.716;2022-09-21T10:14:37;15.10;50.60
11229;DHT22;5671;47.936;8.716;2022-09-21T10:17:06;15.60;49.30
11229;DHT22;5671;47.936;8.716;2022-09-21T10:19:47;16.30;48.80
11229;DHT22;5671;47.936;8.716;2022-09-21T10:22:24;16.70;44.60
11229;DHT22;5671;47.936;8.716;2022-09-21T10:24:58;17.10;44.30
11229;DHT22;5671;47.936;8.716;2022-09-21T10:27:27;17.40;44.00
11229;DHT22;5671;47.936;8.716;2022-09-21T10:29:54;17.60;43.20
11229;DHT22;5671;47.936;8.716;2022-09-21T10:32:24;17.60;43.50
11229;DHT22;5671;47.936;8.716;2022-09-21T10:35:22;17.70;43.30
11229;DHT22;5671;47.936;8.716;2022-09-21T10:38:10;18.10;44.30
11229;DHT22;5671;47.936;8.716;2022-09-21T10:40:59;18.90;43.10
11229;DHT22;5671;47.936;8.716;2022-09-21T10:43:41;19.10;42.00
11229;DHT22;5671;47.936;8.716;2022-09-21T10:46:09;18.90;40.70
11229;DHT22;5671;47.936;8.716;2022-09-21T10:48:45;19.30;40.60
11229;DHT22;5671;47.936;8.716;2022-09-21T10:51:28;19.10;39.70
11229;DHT22;5671;47.936;8.716;2022-09-21T10:53:56;19.50;38.80
11229;DHT22;5671;47.936;8.716;2022-09-21T10:56:27;19.50;39.20
11229;DHT22;5671;47.936;8.716;2022-09-21T10:59:25;19.40;40.40
11229;DHT22;5671;47.936;8.716;2022-09-21T11:01:59;19.60;39.20
11229;DHT22;5671;47.936;8.716;2022-09-21T11:04:33;19.40;37.70
11229;DHT22;5671;47.936;8.716;2022-09-21T11:07:12;19.20;37.90
11229;DHT22;5671;47.936;8.716;2022-09-21T11:09:46;19.20;38.50
11229;DHT22;5671;47.936;8.716;2022-09-21T11:12:37;19.60;37.70
11229;DHT22;5671;47.936;8.716;2022-09-21T11:15:26;19.70;38.10
11229;DHT22;5671;47.936;8.716;2022-09-21T11:18:15;19.60;38.20
11229;DHT22;5671;47.936;8.716;2022-09-21T11:20:52;19.70;38.50
11229;DHT22;5671;47.936;8.716;2022-09-21T11:24:06;19.90;38.20
11229;DHT22;5671;47.936;8.716;2022-09-21T11:26:52;20.50;38.20
11229;DHT22;5671;47.936;8.716;2022-09-21T11:29:25;20.70;38.20
11229;DHT22;5671;47.936;8.716;2022-09-21T11:32:07;20.60;36.60
11229;DHT22;5671;47.936;8.716;2022-09-21T11:34:58;20.50;37.10
11229;DHT22;5671;47.936;8.716;2022-09-21T11:37:49;20.50;37.00
11229;DHT22;5671;47.936;8.716;2022-09-21T11:51:07;21.50;37.60
11229;DHT22;5671;47.936;8.716;2022-09-21T11:57:50;22.20;34.90
11229;DHT22;5671;47.936;8.716;2022-09-21T12:00:20;22.80;33.80
11229;DHT22;5671;47.936;8.716;2022-09-21T12:09:32;22.70;31.20
11229;DHT22;5671;47.936;8.716;2022-09-21T12:12:07;22.90;31.90
11229;DHT22;5671;47.936;8.716;2022-09-21T12:14:49;22.30;30.30
11229;DHT22;5671;47.936;8.716;2022-09-21T12:17:42;22.30;32.60
11229;DHT22;5671;47.936;8.716;2022-09-21T12:20:15;22.20;31.70
11229;DHT22;5671;47.936;8.716;2022-09-21T12:22:46;22.00;30.20
11229;DHT22;5671;47.936;8.716;2022-09-21T12:25:17;21.70;32.10
11229;DHT22;5671;47.936;8.716;2022-09-21T12:28:17;21.40;32.00
11229;DHT22;5671;47.936;8.716;2022-09-21T12:31:08;21.30;32.70
11229;DHT22;5671;47.936;8.716;2022-09-21T12:34:04;21.80;32.20
11229;DHT22;5671;47.936;8.716;2022-09-21T12:37:13;22.00;33.70
11229;DHT22;5671;47.936;8.716;2022-09-21T12:40:02;22.30;32.20
11229;DHT22;5671;47.936;8.716;2022-09-21T12:42:37;22.00;32.40
11229;DHT22;5671;47.936;8.716;2022-09-21T12:45:14;22.00;33.00
11229;DHT22;5671;47.936;8.716;2022-09-21T12:47:58;21.90;32.50
11229;DHT22;5671;47.936;8.716;2022-09-21T12:50:33;21.90;31.80
11229;DHT22;5671;47.936;8.716;2022-09-21T12:53:05;22.00;32.80
11229;DHT22;5671;47.936;8.716;2022-09-21T12:55:41;21.70;33.80
11229;DHT22;5671;47.936;8.716;2022-09-21T12:59:09;22.00;34.60
11229;DHT22;5671;47.936;8.716;2022-09-21T13:01:48;21.90;34.30
11229;DHT22;5671;47.936;8.716;2022-09-21T13:08:13;22.50;33.80
11229;DHT22;5671;47.936;8.716;2022-09-21T13:10:54;22.60;32.40
11229;DHT22;5671;47.936;8.716;2022-09-21T13:13:29;22.70;32.00
11229;DHT22;5671;47.936;8.716;2022-09-21T13:16:06;22.40;29.90
11229;DHT22;5671;47.936;8.716;2022-09-21T13:22:36;22.80;32.10
11229;DHT22;5671;47.936;8.716;2022-09-21T13:29:00;23.40;32.70
11229;DHT22;5671;47.936;8.716;2022-09-21T13:31:53;23.40;30.40
11229;DHT22;5671;47.936;8.716;2022-09-21T13:41:23;22.70;30.80
11229;DHT22;5671;47.936;8.716;2022-09-21T13:44:02;22.80;32.20
11229;DHT22;5671;47.936;8.716;2022-09-21T14:03:33;23.50;32.60
11229;DHT22;5671;47.936;8.716;2022-09-21T14:10:06;23.20;31.10
11229;DHT22;5671;47.936;8.716;2022-09-21T14:13:21;22.90;31.30
11229;DHT22;5671;47.936;8.716;2022-09-21T14:22:42;22.20;32.20
11229;DHT22;5671;47.936;8.716;2022-09-21T14:25:49;22.10;33.30
11229;DHT22;5671;47.936;8.716;2022-09-21T14:28:43;22.00;33.30
11229;DHT22;5671;47.936;8.716;2022-09-21T14:31:16;21.70;33.60
11229;DHT22;5671;47.936;8.716;2022-09-21T14:34:00;21.00;34.30
11229;DHT22;5671;47.936;8.716;2022-09-21T14:36:36;20.60;35.80
11229;DHT22;5671;47.936;8.716;2022-09-21T14:39:15;19.90;35.70
11229;DHT22;5671;47.936;8.716;2022-09-21T14:41:50;19.40;35.40
11229;DHT22;5671;47.936;8.716;2022-09-21T14:44:19;19.00;37.00
11229;DHT22;5671;47.936;8.716;2022-09-21T14:59:54;17.30;39.20
11229;DHT22;5671;47.936;8.716;2022-09-21T15:02:25;17.10;39.90
11229;DHT22;5671;47.936;8.716;2022-09-21T15:05:00;16.80;39.90
11229;DHT22;5671;47.936;8.716;2022-09-21T15:07:38;16.70;41.40
11229;DHT22;5671;47.936;8.716;2022-09-21T15:10:27;16.60;40.40
11229;DHT22;5671;47.936;8.716;2022-09-21T15:13:38;16.50;40.20
11229;DHT22;5671;47.936;8.716;2022-09-21T15:16:31;16.40;40.20
11229;DHT22;5671;47.936;8.716;2022-09-21T15:19:21;16.10;41.90
11229;DHT22;5671;47.936;8.716;2022-09-21T15:21:50;15.90;41.40
11229;DHT22;5671;47.936;8.716;2022-09-21T15:24:24;15.70;43.00
11229;DHT22;5671;47.936;8.716;2022-09-21T15:26:53;15.70;42.90
11229;DHT22;5671;47.936;8.716;2022-09-21T15:29:28;15.60;43.30
11229;DHT22;5671;47.936;8.716;2022-09-21T15:32:00;15.40;42.50
11229;DHT22;5671;47.936;8.716;2022-09-21T15:34:27;15.40;43.30
11229;DHT22;5671;47.936;8.716;2022-09-21T15:37:05;15.30;43.00
11229;DHT22;5671;47.936;8.716;2022-09-21T15:39:32;15.10;42.40
11229;DHT22;5671;47.936;8.716;2022-09-21T15:42:17;15.00;42.90
11229;DHT22;5671;47.936;8.716;2022-09-21T15:44:48;14.90;44.20
11229;DHT22;5671;47.936;8.716;2022-09-21T15:47:22;14.90;44.50
11229;DHT22;5671;47.936;8.716;2022-09-21T15:49:58;14.80;44.70
11229;DHT22;5671;47.936;8.716;2022-09-21T15:52:29;14.80;45.70
11229;DHT22;5671;47.936;8.716;2022-09-21T15:55:00;14.80;44.90
11229;DHT22;5671;47.936;8.716;2022-09-21T15:57:31;14.70;44.30
11229;DHT22;5671;47.936;8.716;2022-09-21T16:00:03;14.60;43.60
11229;DHT22;5671;47.936;8.716;2022-09-21T16:02:58;14.50;43.90
11229;DHT22;5671;47.936;8.716;2022-09-21T16:05:42;14.30;43.70
11229;DHT22;5671;47.936;8.716;2022-09-21T16:08:27;14.20;43.60
11229;DHT22;5671;47.936;8.716;2022-09-21T16:11:17;14.30;44.50
11229;DHT22;5671;47.936;8.716;2022-09-21T16:14:17;14.20;44.30
11229;DHT22;5671;47.936;8.716;2022-09-21T16:17:23;14.20;45.60
11229;DHT22;5671;47.936;8.716;2022-09-21T16:20:13;14.10;44.70
11229;DHT22;5671;47.936;8.716;2022-09-21T16:22:48;14.00;44.60
11229;DHT22;5671;47.936;8.716;2022-09-21T16:25:30;14.00;46.10
11229;DHT22;5671;47.936;8.716;2022-09-21T16:28:01;13.90;44.50
11229;DHT22;5671;47.936;8.716;2022-09-21T16:30:46;13.80;44.70
11229;DHT22;5671;47.936;8.716;2022-09-21T16:34:01;13.70;44.80
11229;DHT22;5671;47.936;8.716;2022-09-21T16:36:43;13.60;46.00
11229;DHT22;5671;47.936;8.716;2022-09-21T16:39:20;13.50;46.30
11229;DHT22;5671;47.936;8.716;2022-09-21T16:41:56;13.50;46.80
11229;DHT22;5671;47.936;8.716;2022-09-21T16:44:45;13.40;46.70
11229;DHT22;5671;47.936;8.716;2022-09-21T16:47:26;13.30;46.10
11229;DHT22;5671;47.936;8.716;2022-09-21T16:49:55;13.20;46.80
11229;DHT22;5671;47.936;8.716;2022-09-21T16:52:36;13.10;47.20
11229;DHT22;5671;47.936;8.716;2022-09-21T16:55:04;13.00;47.50
11229;DHT22;5671;47.936;8.716;2022-09-21T16:58:03;12.90;48.10
11229;DHT22;5671;47.936;8.716;2022-09-21T17:00:39;12.80;49.40
11229;DHT22;5671;47.936;8.716;2022-09-21T17:03:45;12.80;48.80
11229;DHT22;5671;47.936;8.716;2022-09-21T17:09:30;12.50;49.80
11229;DHT22;5671;47.936;8.716;2022-09-21T17:11:58;12.40;50.50
11229;DHT22;5671;47.936;8.716;2022-09-21T17:14:42;12.30;50.40
11229;DHT22;5671;47.936;8.716;2022-09-21T17:17:36;12.30;51.90
11229;DHT22;5671;47.936;8.716;2022-09-21T17:20:37;12.30;51.40
11229;DHT22;5671;47.936;8.716;2022-09-21T17:23:04;12.20;51.90
11229;DHT22;5671;47.936;8.716;2022-09-21T17:25:34;12.10;52.00
11229;DHT22;5671;47.936;8.716;2022-09-21T17:28:02;12.00;52.90
11229;DHT22;5671;47.936;8.716;2022-09-21T17:30:30;11.90;53.40
11229;DHT22;5671;47.936;8.716;2022-09-21T17:32:59;11.90;54.10
11229;DHT22;5671;47.936;8.716;2022-09-21T17:35:29;11.80;54.00
11229;DHT22;5671;47.936;8.716;2022-09-21T17:37:57;11.70;53.90
11229;DHT22;5671;47.936;8.716;2022-09-21T17:40:25;11.60;53.80
11229;DHT22;5671;47.936;8.716;2022-09-21T17:45:43;11.40;53.80
11229;DHT22;5671;47.936;8.716;2022-09-21T17:48:18;11.30;54.50
11229;DHT22;5671;47.936;8.716;2022-09-21T17:50:45;11.20;55.80
11229;DHT22;5671;47.936;8.716;2022-09-21T17:53:13;11.00;55.50
11229;DHT22;5671;47.936;8.716;2022-09-21T17:56:00;11.00;56.30
11229;DHT22;5671;47.936;8.716;2022-09-21T17:58:44;10.80;56.50
11229;DHT22;5671;47.936;8.716;2022-09-21T18:01:30;10.70;56.10
11229;DHT22;5671;47.936;8.716;2022-09-21T18:04:02;10.60;56.60
11229;DHT22;5671;47.936;8.716;2022-09-21T18:06:30;10.50;56.70
11229;DHT22;5671;47.936;8.716;2022-09-21T18:08:57;10.40;56.90
11229;DHT22;5671;47.936;8.716;2022-09-21T18:14:30;10.30;58.30
11229;DHT22;5671;47.936;8.716;2022-09-21T18:17:09;10.20;57.70
11229;DHT22;5671;47.936;8.716;2022-09-21T18:19:55;10.00;59.00
11229;DHT22;5671;47.936;8.716;2022-09-21T18:22:32;9.90;60.30
11229;DHT22;5671;47.936;8.716;2022-09-21T18:25:10;9.80;59.70
11229;DHT22;5671;47.936;8.716;2022-09-21T18:27:40;9.70;60.30
11229;DHT22;5671;47.936;8.716;2022-09-21T18:30:12;9.60;60.10
11229;DHT22;5671;47.936;8.716;2022-09-21T18:32:48;9.50;59.80